EPKKEPKT

Guest
Details From EPKK - BALICE
To EPKT - PYRZOWICE
Flight Number -
Tags generated
Created
Modified
Stats Distance 37 nm / 68 km
Max Altitude 600 ft / 183 m
Waypoints 3
Social Downloads 11
Likes 0
Share VATSIM

Download

Looking for another format? Having issues loading an existing format? Contact us
Advertisement - Login to hide

Notes

Basic altitude profile: - Ascent Rate: 300ft/min - Ascent Speed: 60kts - Cruise Altitude: 11000ft - Cruise Speed: 100kts - Descent Rate: 500ft/min - Descent Speed: 110kts Options: - Use NATs: yes - Use PACOTS: yes - Use low airways: yes - Use high airways: no

Route

EPKK PT EPKT

ID Type Via Altitude Latitude Longitude Leg Dist Tot Dist Heading (true) Name
O EPKK APT - 0 ft / 0 m 50.07782˚ 19.78550˚ - 0 nm - BALICE
PT NDB - 600 ft / 183 m 50.47407˚ 19.15034˚ 34 nm 34 nm 315° / 314° -
O EPKT APT - 0 ft / 0 m 50.47426˚ 19.07436˚ 2 nm 36 nm 270° / 270° PYRZOWICE

Altitude Profile

Advertisement - Login to hide

EPKK

Details ICAO EPKK (KRK)
Name BALICE
Region Poland
Timezone Europe/Warsaw (UTC+1.0)
Stats Elevation 791 ft / 241 m (AMSL)
Location 50.077821° 19.785503°
Runways 1
Magnetic Variation 5.201° E

METAR

EPKK 111100Z 20011KT 160V220 9999 SCT040 10/02 Q0995

Decode

TAF

TAF EPKK 110530Z 1106/1206 20012KT 9999 SCT035 TEMPO 1106/1206 20015G30KT PROB30 TEMPO 1118/1206 20025G40KT

Decode

Departure Runways

ID Width Length Bearing (true) Bearing (mag) Surface Threshold Offset Overrun Length
07 197 ft / 60 m 8,343 ft / 2,543 m 77.75° 72.55° Concrete 0 ft / 0 m 0 ft / 0 m
25 197 ft / 60 m 8,343 ft / 2,543 m 257.77° 252.57° Concrete 784 ft / 239 m 0 ft / 0 m

EPKT

Details ICAO EPKT (KTW)
Name PYRZOWICE
Region Poland
Timezone Europe/Warsaw (UTC+1.0)
Stats Elevation 995 ft / 303 m (AMSL)
Location 50.474263° 19.074356°
Runways 1
Magnetic Variation 5.084° E

METAR

EPKT 111100Z 19011KT 9999 FEW028 07/02 Q0994

Decode

TAF

TAF EPKT 110530Z 1106/1206 17015KT 9999 SCT035 TEMPO 1106/1206 19020G30KT PROB30 TEMPO 1118/1206 19025G40KT BKN012

Decode

Destination Runways

ID Width Length Bearing (true) Bearing (mag) Surface Threshold Offset Overrun Length
09 195 ft / 59 m 9,156 ft / 2,791 m 90.18° 85.10° Concrete 0 ft / 0 m 0 ft / 0 m
27 195 ft / 59 m 9,156 ft / 2,791 m 270.22° 265.14° Concrete 0 ft / 0 m 0 ft / 0 m

Approach Navaids

Runway Type Ident Frequency Range Bearing (true) Bearing (mag) Slope Elevation
27 Localiser KAT 109.90 MHz 18 nm / 33 km 270.18° 265.09° - 995 ft / 303 m (AMSL)
27 Glidescope KAT 109.90 MHz 10 nm / 19 km 270.20° 265.12° 3.20° 995 ft / 303 m (AMSL)

Popular Alternatives